createdAt,value
2023-04-10T00:00:34.582Z,100.00
2023-04-10T00:05:39.781Z,100.00
2023-04-10T00:10:47.709Z,100.00
2023-04-10T00:15:52.758Z,100.00
2023-04-10T00:20:58.110Z,100.00
2023-04-10T00:26:07.295Z,100.00
2023-04-10T00:31:12.548Z,100.00
2023-04-10T00:36:17.997Z,100.00
2023-04-10T00:41:26.016Z,100.00
2023-04-10T00:46:31.729Z,100.00
2023-04-10T00:51:37.126Z,100.00
2023-04-10T00:56:45.297Z,100.00
2023-04-10T01:01:51.082Z,100.00
2023-04-10T01:07:02.613Z,100.00
2023-04-10T01:12:19.597Z,100.00
2023-04-10T01:17:34.186Z,100.00
2023-04-10T01:22:45.061Z,100.00
2023-04-10T01:28:13.443Z,100.00
2023-04-10T01:33:25.855Z,100.00
2023-04-10T01:38:34.210Z,100.00
2023-04-10T01:43:45.102Z,100.00
2023-04-10T01:48:55.609Z,100.00
2023-04-10T01:54:01.744Z,100.00
2023-04-10T01:59:07.914Z,100.00
2023-04-10T02:04:15.982Z,100.00
2023-04-10T02:09:31.868Z,100.00
2023-04-10T02:14:42.023Z,100.00
2023-04-10T02:19:51.084Z,100.00
2023-04-10T02:24:56.938Z,100.00
2023-04-10T02:30:03.507Z,100.00
2023-04-10T02:35:15.998Z,100.00
2023-04-10T02:40:22.772Z,100.00
2023-04-10T02:45:46.765Z,100.00
2023-04-10T02:51:02.383Z,100.00
2023-04-10T02:56:11.933Z,100.00
2023-04-10T03:01:17.517Z,100.00
2023-04-10T03:06:30.227Z,100.00
2023-04-10T03:11:36.668Z,100.00
2023-04-10T03:16:42.285Z,100.00
2023-04-10T03:21:50.881Z,100.00
2023-04-10T03:26:57.239Z,100.00
2023-04-10T03:32:04.480Z,100.00
2023-04-10T03:37:12.593Z,100.00
2023-04-10T03:42:19.239Z,100.00
2023-04-10T03:47:28.039Z,100.00
2023-04-10T03:52:36.048Z,100.00
2023-04-10T03:57:42.452Z,100.00
2023-04-10T04:02:52.972Z,100.00
2023-04-10T04:08:24.185Z,100.00
2023-04-10T04:13:48.192Z,100.00
2023-04-10T04:19:06.589Z,100.00
2023-04-10T04:24:22.250Z,100.00
2023-04-10T04:29:41.862Z,100.00
2023-04-10T04:35:16.425Z,100.00
2023-04-10T04:40:47.791Z,100.00
2023-04-10T04:46:19.474Z,100.00
2023-04-10T04:51:43.236Z,100.00
2023-04-10T04:57:05.296Z,100.00
2023-04-10T05:02:43.267Z,96.77
2023-04-10T05:08:07.591Z,97.32
2023-04-10T05:13:28.439Z,89.78
2023-04-10T05:18:50.652Z,86.75
2023-04-10T05:24:14.284Z,82.63
2023-04-10T05:29:51.075Z,80.00
2023-04-10T05:35:14.993Z,83.18
2023-04-10T05:40:43.506Z,78.96
2023-04-10T05:46:23.903Z,68.09
2023-04-10T05:51:42.761Z,69.10
2023-04-10T05:57:02.018Z,73.30
2023-04-10T06:02:27.814Z,76.93
2023-04-10T06:07:34.169Z,78.45
2023-04-10T06:12:39.444Z,69.90
2023-04-10T06:17:50.764Z,70.10
2023-04-10T06:22:56.690Z,68.54
2023-04-10T06:28:01.924Z,69.55
2023-04-10T06:33:10.016Z,66.61
2023-04-10T06:38:22.462Z,67.13
2023-04-10T06:43:30.901Z,66.30
2023-04-10T06:48:39.033Z,63.83
2023-04-10T06:53:44.211Z,62.23
2023-04-10T06:58:49.548Z,59.88
2023-04-10T07:03:57.351Z,56.16
2023-04-10T07:09:03.687Z,55.31
2023-04-10T07:14:11.626Z,53.51
2023-04-10T07:19:19.471Z,57.83
2023-04-10T07:24:24.773Z,61.08
2023-04-10T07:29:29.999Z,60.79
2023-04-10T07:34:37.924Z,67.48
2023-04-10T07:39:45.617Z,65.37
2023-04-10T07:44:50.721Z,70.13
2023-04-10T07:50:01.094Z,69.75
2023-04-10T07:55:08.017Z,66.64
2023-04-10T08:00:14.650Z,66.56
2023-04-10T08:05:25.266Z,63.51
2023-04-10T08:10:30.736Z,60.33
2023-04-10T08:15:36.800Z,61.20
2023-04-10T08:20:47.728Z,57.46
2023-04-10T08:25:55.732Z,51.98
2023-04-10T08:31:00.971Z,57.98
2023-04-10T08:36:09.468Z,53.52
2023-04-10T08:41:15.001Z,50.56
2023-04-10T08:46:20.402Z,52.79
2023-04-10T08:51:34.709Z,51.56
2023-04-10T08:56:45.249Z,53.76
2023-04-10T09:01:51.070Z,58.52
2023-04-10T09:07:00.960Z,59.44
2023-04-10T09:12:08.184Z,59.95
2023-04-10T09:17:19.976Z,60.76
2023-04-10T09:22:36.585Z,60.06
2023-04-10T09:27:44.668Z,56.75
2023-04-10T09:32:50.095Z,59.25
2023-04-10T09:37:57.907Z,58.17
2023-04-10T09:43:03.207Z,62.73
2023-04-10T09:48:11.603Z,60.49
2023-04-10T09:53:22.041Z,59.45
2023-04-10T09:58:28.531Z,58.71
2023-04-10T10:03:35.156Z,58.34
2023-04-10T10:08:43.396Z,57.12
2023-04-10T10:13:57.277Z,55.57
2023-04-10T10:19:06.916Z,58.35
2023-04-10T10:24:16.273Z,56.27
2023-04-10T10:29:22.732Z,58.48
2023-04-10T10:34:28.588Z,59.02
2023-04-10T10:39:45.694Z,56.90
2023-04-10T10:44:57.557Z,57.67
2023-04-10T10:50:05.372Z,55.59
2023-04-10T10:55:40.720Z,55.16
2023-04-10T11:01:13.346Z,56.74
2023-04-10T11:06:20.041Z,57.16
2023-04-10T11:11:29.143Z,57.84
2023-04-10T11:16:51.631Z,55.99
2023-04-10T11:22:06.382Z,56.05
2023-04-10T11:27:53.343Z,58.07
2023-04-10T11:32:58.979Z,58.23
2023-04-10T11:38:18.878Z,58.99
2023-04-10T11:43:26.882Z,57.81
2023-04-10T11:48:32.723Z,54.96
2023-04-10T11:53:37.872Z,56.64
2023-04-10T11:58:45.982Z,54.42
2023-04-10T12:03:51.945Z,55.59
2023-04-10T12:08:58.069Z,54.07
2023-04-10T12:14:06.064Z,54.62
2023-04-10T12:19:11.282Z,53.95
2023-04-10T12:24:17.161Z,52.79
2023-04-10T12:29:30.828Z,52.92
2023-04-10T12:34:36.114Z,52.62
2023-04-10T12:39:42.302Z,51.28
2023-04-10T12:44:57.500Z,50.38
2023-04-10T12:50:11.371Z,51.26
2023-04-10T12:55:21.482Z,50.34
2023-04-10T13:00:29.542Z,50.58
2023-04-10T13:05:34.758Z,50.18
2023-04-10T13:10:42.354Z,49.31
2023-04-10T13:15:50.447Z,48.52
2023-04-10T13:20:56.443Z,48.02
2023-04-10T13:26:02.434Z,49.36
2023-04-10T13:31:12.993Z,49.74
2023-04-10T13:36:18.640Z,50.75
2023-04-10T13:41:24.070Z,51.36
2023-04-10T13:46:31.945Z,50.79
2023-04-10T13:51:37.132Z,48.85
2023-04-10T13:56:42.324Z,48.73
2023-04-10T14:01:52.337Z,49.79
2023-04-10T14:07:00.704Z,51.00
2023-04-10T14:12:05.911Z,48.72
2023-04-10T14:17:14.715Z,50.00
2023-04-10T14:22:19.852Z,50.03
2023-04-10T14:27:25.049Z,49.55
2023-04-10T14:32:33.641Z,48.86
2023-04-10T14:37:39.151Z,49.74
2023-04-10T14:42:44.315Z,50.29
2023-04-10T14:47:52.027Z,50.73
2023-04-10T14:52:59.869Z,49.78
2023-04-10T14:58:04.945Z,50.02
2023-04-10T15:03:12.793Z,50.11
2023-04-10T15:08:18.212Z,50.35
2023-04-10T15:13:24.148Z,49.42
2023-04-10T15:18:32.943Z,50.65
2023-04-10T15:23:53.453Z,49.78
2023-04-10T15:29:06.785Z,50.87
2023-04-10T15:34:14.562Z,51.32
2023-04-10T15:39:20.037Z,51.64
2023-04-10T15:44:25.429Z,49.93
2023-04-10T15:49:38.460Z,50.53
2023-04-10T15:54:47.104Z,52.19
2023-04-10T15:59:58.088Z,53.17
2023-04-10T16:05:09.622Z,53.18
2023-04-10T16:10:15.065Z,52.86
2023-04-10T16:15:20.705Z,53.15
2023-04-10T16:20:31.038Z,53.24
2023-04-10T16:25:36.301Z,54.00
2023-04-10T16:30:41.738Z,54.72
2023-04-10T16:35:50.328Z,55.01
2023-04-10T16:40:55.655Z,55.18
2023-04-10T16:46:01.840Z,55.44
2023-04-10T16:51:12.112Z,55.70
2023-04-10T16:56:17.620Z,56.07
2023-04-10T17:01:26.218Z,57.10
2023-04-10T17:06:35.167Z,57.18
2023-04-10T17:11:53.754Z,57.43
2023-04-10T17:16:59.717Z,57.87
2023-04-10T17:22:16.439Z,58.61
2023-04-10T17:27:22.630Z,58.73
2023-04-10T17:32:28.004Z,59.23
2023-04-10T17:37:38.417Z,59.32
2023-04-10T17:42:44.934Z,59.96
2023-04-10T17:47:51.180Z,60.25
2023-04-10T17:52:59.411Z,60.98
2023-04-10T17:58:04.992Z,61.75
2023-04-10T18:03:11.499Z,62.28
2023-04-10T18:08:19.522Z,63.16
2023-04-10T18:13:25.512Z,63.70
2023-04-10T18:18:31.881Z,64.19
2023-04-10T18:23:40.334Z,64.21
2023-04-10T18:28:46.623Z,64.80
2023-04-10T18:34:07.238Z,65.87
2023-04-10T18:39:16.512Z,66.96
2023-04-10T18:44:21.914Z,67.74
2023-04-10T18:49:27.712Z,68.65
2023-04-10T18:54:38.329Z,69.03
2023-04-10T18:59:43.639Z,69.70
2023-04-10T19:04:49.021Z,70.70
2023-04-10T19:09:58.918Z,71.74
2023-04-10T19:15:04.283Z,71.51
2023-04-10T19:20:11.657Z,72.46
2023-04-10T19:25:19.858Z,73.13
2023-04-10T19:30:26.429Z,73.64
2023-04-10T19:35:31.807Z,73.36
2023-04-10T19:40:39.829Z,74.17
2023-04-10T19:45:45.565Z,75.87
2023-04-10T19:50:51.290Z,76.26
2023-04-10T19:55:59.269Z,76.14
2023-04-10T20:01:09.385Z,76.42
2023-04-10T20:06:14.711Z,76.82
2023-04-10T20:11:23.267Z,77.18
2023-04-10T20:16:28.705Z,77.02
2023-04-10T20:21:34.343Z,76.74
2023-04-10T20:26:45.708Z,77.08
2023-04-10T20:31:51.165Z,76.78
2023-04-10T20:36:56.592Z,76.76
2023-04-10T20:42:04.468Z,76.30
2023-04-10T20:47:09.858Z,76.41
2023-04-10T20:52:15.097Z,75.46
2023-04-10T20:57:23.992Z,74.92
2023-04-10T21:02:31.759Z,73.77
2023-04-10T21:07:37.390Z,72.79
2023-04-10T21:12:46.604Z,72.38
2023-04-10T21:17:51.734Z,72.36
2023-04-10T21:22:57.019Z,71.76
2023-04-10T21:28:05.258Z,70.95
2023-04-10T21:33:10.447Z,71.38
2023-04-10T21:38:15.912Z,71.23
2023-04-10T21:43:24.113Z,71.34
2023-04-10T21:48:29.278Z,71.42
2023-04-10T21:53:34.732Z,71.93
2023-04-10T21:58:42.601Z,72.31
2023-04-10T22:03:47.861Z,71.98
2023-04-10T22:08:53.414Z,72.54
2023-04-10T22:14:12.579Z,72.05
2023-04-10T22:19:21.691Z,71.71
2023-04-10T22:24:26.847Z,71.22
2023-04-10T22:29:34.651Z,71.47
2023-04-10T22:34:40.342Z,71.57
2023-04-10T22:39:45.698Z,71.93
2023-04-10T22:44:54.455Z,71.04
2023-04-10T22:49:59.543Z,71.07
2023-04-10T22:55:04.841Z,71.18
2023-04-10T23:00:18.255Z,71.34
2023-04-10T23:05:23.344Z,71.08
2023-04-10T23:10:28.730Z,70.80
2023-04-10T23:15:37.415Z,70.83
2023-04-10T23:20:42.560Z,70.63
2023-04-10T23:25:50.563Z,70.50
2023-04-10T23:30:58.470Z,69.97
2023-04-10T23:36:03.728Z,69.70
2023-04-10T23:41:10.180Z,70.03
2023-04-10T23:46:20.020Z,69.63
2023-04-10T23:51:25.198Z,69.61
2023-04-10T23:56:35.554Z,68.98
